sensor_id;sensor_type;location;lat;lon;timestamp;P1;durP1;ratioP1;P2;durP2;ratioP2
69542;SDS011;56762;49.494;11.768;2023-04-03T00:01:11;1.90;;;0.73;;
69542;SDS011;56762;49.494;11.768;2023-04-03T00:03:39;2.88;;;0.95;;
69542;SDS011;56762;49.494;11.768;2023-04-03T00:06:08;2.70;;;0.90;;
69542;SDS011;56762;49.494;11.768;2023-04-03T00:08:37;3.63;;;0.90;;
69542;SDS011;56762;49.494;11.768;2023-04-03T00:11:08;2.58;;;0.80;;
69542;SDS011;56762;49.494;11.768;2023-04-03T00:13:37;2.05;;;0.90;;
69542;SDS011;56762;49.494;11.768;2023-04-03T00:16:06;2.90;;;0.90;;
69542;SDS011;56762;49.494;11.768;2023-04-03T00:18:34;3.25;;;1.17;;
69542;SDS011;56762;49.494;11.768;2023-04-03T00:21:02;3.07;;;1.20;;
69542;SDS011;56762;49.494;11.768;2023-04-03T00:23:31;2.67;;;0.68;;
69542;SDS011;56762;49.494;11.768;2023-04-03T00:25:59;3.13;;;0.93;;
69542;SDS011;56762;49.494;11.768;2023-04-03T00:28:28;2.75;;;1.30;;
69542;SDS011;56762;49.494;11.768;2023-04-03T00:30:56;2.47;;;0.90;;
69542;SDS011;56762;49.494;11.768;2023-04-03T00:33:24;2.47;;;1.10;;
69542;SDS011;56762;49.494;11.768;2023-04-03T00:35:52;2.20;;;0.77;;
69542;SDS011;56762;49.494;11.768;2023-04-03T00:38:20;3.13;;;0.70;;
69542;SDS011;56762;49.494;11.768;2023-04-03T00:40:48;1.83;;;0.70;;
69542;SDS011;56762;49.494;11.768;2023-04-03T00:43:18;3.13;;;0.88;;
69542;SDS011;56762;49.494;11.768;2023-04-03T00:45:49;1.93;;;0.70;;
69542;SDS011;56762;49.494;11.768;2023-04-03T00:48:20;3.17;;;0.75;;
69542;SDS011;56762;49.494;11.768;2023-04-03T00:50:48;2.72;;;0.73;;
69542;SDS011;56762;49.494;11.768;2023-04-03T00:53:18;2.85;;;1.08;;
69542;SDS011;56762;49.494;11.768;2023-04-03T00:55:49;2.30;;;0.70;;
69542;SDS011;56762;49.494;11.768;2023-04-03T00:58:20;2.50;;;0.83;;
69542;SDS011;56762;49.494;11.768;2023-04-03T01:00:52;1.65;;;0.60;;
69542;SDS011;56762;49.494;11.768;2023-04-03T01:03:23;2.75;;;0.98;;
69542;SDS011;56762;49.494;11.768;2023-04-03T01:05:52;1.98;;;0.80;;
69542;SDS011;56762;49.494;11.768;2023-04-03T01:08:19;2.40;;;0.93;;
69542;SDS011;56762;49.494;11.768;2023-04-03T01:10:48;1.63;;;0.60;;
69542;SDS011;56762;49.494;11.768;2023-04-03T01:13:17;2.50;;;0.90;;
69542;SDS011;56762;49.494;11.768;2023-04-03T01:15:50;2.70;;;1.00;;
69542;SDS011;56762;49.494;11.768;2023-04-03T01:18:19;3.30;;;1.00;;
69542;SDS011;56762;49.494;11.768;2023-04-03T01:21:05;2.22;;;0.88;;
69542;SDS011;56762;49.494;11.768;2023-04-03T01:24:05;2.30;;;0.80;;
69542;SDS011;56762;49.494;11.768;2023-04-03T01:26:53;2.17;;;0.70;;
69542;SDS011;56762;49.494;11.768;2023-04-03T01:29:21;4.45;;;0.75;;
69542;SDS011;56762;49.494;11.768;2023-04-03T01:31:51;3.45;;;0.90;;
69542;SDS011;56762;49.494;11.768;2023-04-03T01:34:22;2.38;;;0.82;;
69542;SDS011;56762;49.494;11.768;2023-04-03T01:36:51;2.73;;;0.87;;
69542;SDS011;56762;49.494;11.768;2023-04-03T01:39:19;2.33;;;0.60;;
69542;SDS011;56762;49.494;11.768;2023-04-03T01:41:48;2.00;;;0.60;;
69542;SDS011;56762;49.494;11.768;2023-04-03T01:44:16;2.30;;;0.60;;
69542;SDS011;56762;49.494;11.768;2023-04-03T01:46:45;3.60;;;0.85;;
69542;SDS011;56762;49.494;11.768;2023-04-03T01:49:14;3.40;;;0.80;;
69542;SDS011;56762;49.494;11.768;2023-04-03T01:51:42;1.77;;;0.80;;
69542;SDS011;56762;49.494;11.768;2023-04-03T01:54:10;2.33;;;0.80;;
69542;SDS011;56762;49.494;11.768;2023-04-03T01:56:38;2.42;;;0.90;;
69542;SDS011;56762;49.494;11.768;2023-04-03T01:59:06;2.80;;;0.60;;
69542;SDS011;56762;49.494;11.768;2023-04-03T02:01:34;2.50;;;0.70;;
69542;SDS011;56762;49.494;11.768;2023-04-03T02:04:03;2.40;;;0.80;;
69542;SDS011;56762;49.494;11.768;2023-04-03T02:06:32;3.42;;;0.65;;
69542;SDS011;56762;49.494;11.768;2023-04-03T02:09:00;1.83;;;0.70;;
69542;SDS011;56762;49.494;11.768;2023-04-03T02:11:28;2.08;;;0.68;;
69542;SDS011;56762;49.494;11.768;2023-04-03T02:13:56;1.43;;;0.60;;
69542;SDS011;56762;49.494;11.768;2023-04-03T02:16:24;2.83;;;0.68;;
69542;SDS011;56762;49.494;11.768;2023-04-03T02:18:52;3.33;;;0.70;;
69542;SDS011;56762;49.494;11.768;2023-04-03T02:21:20;2.78;;;0.73;;
69542;SDS011;56762;49.494;11.768;2023-04-03T02:23:50;4.28;;;0.73;;
69542;SDS011;56762;49.494;11.768;2023-04-03T02:26:18;1.97;;;0.67;;
69542;SDS011;56762;49.494;11.768;2023-04-03T02:28:46;2.47;;;0.80;;
69542;SDS011;56762;49.494;11.768;2023-04-03T02:34:04;2.22;;;0.70;;
69542;SDS011;56762;49.494;11.768;2023-04-03T02:36:33;2.55;;;0.60;;
69542;SDS011;56762;49.494;11.768;2023-04-03T02:39:02;1.67;;;0.60;;
69542;SDS011;56762;49.494;11.768;2023-04-03T02:41:30;2.22;;;0.57;;
69542;SDS011;56762;49.494;11.768;2023-04-03T02:44:01;1.73;;;0.60;;
69542;SDS011;56762;49.494;11.768;2023-04-03T02:46:30;2.40;;;0.80;;
69542;SDS011;56762;49.494;11.768;2023-04-03T02:48:59;3.22;;;1.10;;
69542;SDS011;56762;49.494;11.768;2023-04-03T02:51:27;3.63;;;0.90;;
69542;SDS011;56762;49.494;11.768;2023-04-03T02:53:54;2.97;;;0.93;;
69542;SDS011;56762;49.494;11.768;2023-04-03T02:56:24;5.45;;;0.98;;
69542;SDS011;56762;49.494;11.768;2023-04-03T02:58:53;2.47;;;0.82;;
69542;SDS011;56762;49.494;11.768;2023-04-03T03:01:21;4.15;;;0.80;;
69542;SDS011;56762;49.494;11.768;2023-04-03T03:03:49;1.83;;;0.90;;
69542;SDS011;56762;49.494;11.768;2023-04-03T03:06:17;3.83;;;1.00;;
69542;SDS011;56762;49.494;11.768;2023-04-03T03:08:45;2.95;;;0.82;;
69542;SDS011;56762;49.494;11.768;2023-04-03T03:11:13;3.47;;;0.90;;
69542;SDS011;56762;49.494;11.768;2023-04-03T03:13:42;2.60;;;0.90;;
69542;SDS011;56762;49.494;11.768;2023-04-03T03:16:10;3.97;;;0.80;;
69542;SDS011;56762;49.494;11.768;2023-04-03T03:18:38;3.42;;;0.90;;
69542;SDS011;56762;49.494;11.768;2023-04-03T03:21:06;3.17;;;1.15;;
69542;SDS011;56762;49.494;11.768;2023-04-03T03:23:34;4.18;;;0.80;;
69542;SDS011;56762;49.494;11.768;2023-04-03T03:26:03;3.10;;;0.82;;
69542;SDS011;56762;49.494;11.768;2023-04-03T03:28:33;3.20;;;0.80;;
69542;SDS011;56762;49.494;11.768;2023-04-03T03:31:04;2.83;;;1.67;;
69542;SDS011;56762;49.494;11.768;2023-04-03T03:33:33;3.22;;;1.00;;
69542;SDS011;56762;49.494;11.768;2023-04-03T03:36:01;3.13;;;0.98;;
69542;SDS011;56762;49.494;11.768;2023-04-03T03:38:29;4.38;;;1.10;;
69542;SDS011;56762;49.494;11.768;2023-04-03T03:40:57;2.70;;;1.10;;
69542;SDS011;56762;49.494;11.768;2023-04-03T03:43:24;2.58;;;0.60;;
69542;SDS011;56762;49.494;11.768;2023-04-03T03:45:53;2.33;;;1.08;;
69542;SDS011;56762;49.494;11.768;2023-04-03T03:48:23;4.43;;;1.00;;
69542;SDS011;56762;49.494;11.768;2023-04-03T03:50:51;5.07;;;1.00;;
69542;SDS011;56762;49.494;11.768;2023-04-03T03:53:18;4.43;;;1.10;;
69542;SDS011;56762;49.494;11.768;2023-04-03T03:55:46;4.07;;;1.92;;
69542;SDS011;56762;49.494;11.768;2023-04-03T03:58:14;2.30;;;0.90;;
69542;SDS011;56762;49.494;11.768;2023-04-03T04:00:41;3.03;;;1.05;;
69542;SDS011;56762;49.494;11.768;2023-04-03T04:03:09;4.63;;;0.98;;
69542;SDS011;56762;49.494;11.768;2023-04-03T04:05:38;4.33;;;1.60;;
69542;SDS011;56762;49.494;11.768;2023-04-03T04:08:06;3.42;;;0.98;;
69542;SDS011;56762;49.494;11.768;2023-04-03T04:10:34;2.55;;;1.02;;
69542;SDS011;56762;49.494;11.768;2023-04-03T04:13:04;3.47;;;1.10;;
69542;SDS011;56762;49.494;11.768;2023-04-03T04:15:32;4.55;;;1.38;;
69542;SDS011;56762;49.494;11.768;2023-04-03T04:18:00;4.40;;;1.53;;
69542;SDS011;56762;49.494;11.768;2023-04-03T04:20:29;2.40;;;1.20;;
69542;SDS011;56762;49.494;11.768;2023-04-03T04:22:58;2.70;;;1.10;;
69542;SDS011;56762;49.494;11.768;2023-04-03T04:25:25;3.10;;;1.10;;
69542;SDS011;56762;49.494;11.768;2023-04-03T04:27:53;4.75;;;1.33;;
69542;SDS011;56762;49.494;11.768;2023-04-03T04:30:21;3.30;;;0.90;;
69542;SDS011;56762;49.494;11.768;2023-04-03T04:32:49;3.70;;;1.05;;
69542;SDS011;56762;49.494;11.768;2023-04-03T04:35:17;7.80;;;2.33;;
69542;SDS011;56762;49.494;11.768;2023-04-03T04:37:45;5.63;;;2.03;;
69542;SDS011;56762;49.494;11.768;2023-04-03T04:40:15;4.55;;;1.70;;
69542;SDS011;56762;49.494;11.768;2023-04-03T04:42:43;5.27;;;1.80;;
69542;SDS011;56762;49.494;11.768;2023-04-03T04:45:11;7.25;;;1.80;;
69542;SDS011;56762;49.494;11.768;2023-04-03T04:47:41;4.25;;;1.52;;
69542;SDS011;56762;49.494;11.768;2023-04-03T04:50:09;3.70;;;1.27;;
69542;SDS011;56762;49.494;11.768;2023-04-03T04:52:38;4.80;;;1.40;;
69542;SDS011;56762;49.494;11.768;2023-04-03T04:55:07;3.97;;;1.20;;
69542;SDS011;56762;49.494;11.768;2023-04-03T04:57:37;3.05;;;1.40;;
69542;SDS011;56762;49.494;11.768;2023-04-03T05:00:06;3.53;;;1.67;;
69542;SDS011;56762;49.494;11.768;2023-04-03T05:02:34;5.10;;;1.60;;
69542;SDS011;56762;49.494;11.768;2023-04-03T05:05:03;2.42;;;1.30;;
69542;SDS011;56762;49.494;11.768;2023-04-03T05:07:31;3.83;;;1.70;;
69542;SDS011;56762;49.494;11.768;2023-04-03T05:09:59;5.10;;;1.80;;
69542;SDS011;56762;49.494;11.768;2023-04-03T05:12:27;4.18;;;1.42;;
69542;SDS011;56762;49.494;11.768;2023-04-03T05:14:56;3.28;;;1.30;;
69542;SDS011;56762;49.494;11.768;2023-04-03T05:17:24;4.18;;;1.40;;
69542;SDS011;56762;49.494;11.768;2023-04-03T05:19:52;4.40;;;1.50;;
69542;SDS011;56762;49.494;11.768;2023-04-03T05:22:20;6.13;;;1.70;;
69542;SDS011;56762;49.494;11.768;2023-04-03T05:24:48;5.10;;;1.75;;
69542;SDS011;56762;49.494;11.768;2023-04-03T05:27:16;3.95;;;1.60;;
69542;SDS011;56762;49.494;11.768;2023-04-03T05:29:44;4.75;;;1.67;;
69542;SDS011;56762;49.494;11.768;2023-04-03T05:32:13;5.27;;;1.60;;
69542;SDS011;56762;49.494;11.768;2023-04-03T05:34:41;6.20;;;1.60;;
69542;SDS011;56762;49.494;11.768;2023-04-03T05:37:09;3.20;;;1.20;;
69542;SDS011;56762;49.494;11.768;2023-04-03T05:39:37;2.88;;;1.48;;
69542;SDS011;56762;49.494;11.768;2023-04-03T05:42:07;5.28;;;2.10;;
69542;SDS011;56762;49.494;11.768;2023-04-03T05:44:35;7.53;;;2.30;;
69542;SDS011;56762;49.494;11.768;2023-04-03T05:47:03;5.75;;;1.60;;
69542;SDS011;56762;49.494;11.768;2023-04-03T05:49:32;3.45;;;1.50;;
69542;SDS011;56762;49.494;11.768;2023-04-03T05:52:00;3.28;;;1.40;;
69542;SDS011;56762;49.494;11.768;2023-04-03T05:54:29;5.13;;;1.90;;
69542;SDS011;56762;49.494;11.768;2023-04-03T05:56:57;5.40;;;1.73;;
69542;SDS011;56762;49.494;11.768;2023-04-03T05:59:26;4.15;;;1.48;;
69542;SDS011;56762;49.494;11.768;2023-04-03T06:01:54;4.13;;;1.73;;
69542;SDS011;56762;49.494;11.768;2023-04-03T06:04:22;3.17;;;1.50;;
69542;SDS011;56762;49.494;11.768;2023-04-03T06:06:52;5.32;;;1.58;;
69542;SDS011;56762;49.494;11.768;2023-04-03T06:09:22;7.07;;;2.20;;
69542;SDS011;56762;49.494;11.768;2023-04-03T06:11:51;5.05;;;1.85;;
69542;SDS011;56762;49.494;11.768;2023-04-03T06:14:19;3.70;;;1.63;;
69542;SDS011;56762;49.494;11.768;2023-04-03T06:16:47;3.53;;;1.27;;
69542;SDS011;56762;49.494;11.768;2023-04-03T06:19:15;4.35;;;1.50;;
69542;SDS011;56762;49.494;11.768;2023-04-03T06:21:43;4.53;;;1.37;;
69542;SDS011;56762;49.494;11.768;2023-04-03T06:24:14;3.58;;;1.45;;
69542;SDS011;56762;49.494;11.768;2023-04-03T06:26:42;4.13;;;1.30;;
69542;SDS011;56762;49.494;11.768;2023-04-03T06:29:10;3.30;;;1.08;;
69542;SDS011;56762;49.494;11.768;2023-04-03T06:31:38;4.53;;;1.30;;
69542;SDS011;56762;49.494;11.768;2023-04-03T06:34:06;5.40;;;1.37;;
69542;SDS011;56762;49.494;11.768;2023-04-03T06:36:35;2.75;;;1.00;;
69542;SDS011;56762;49.494;11.768;2023-04-03T06:39:03;5.82;;;1.60;;
69542;SDS011;56762;49.494;11.768;2023-04-03T06:41:33;3.80;;;1.33;;
69542;SDS011;56762;49.494;11.768;2023-04-03T06:44:03;4.57;;;1.40;;
69542;SDS011;56762;49.494;11.768;2023-04-03T06:46:31;3.60;;;1.50;;
69542;SDS011;56762;49.494;11.768;2023-04-03T06:49:02;4.15;;;1.30;;
69542;SDS011;56762;49.494;11.768;2023-04-03T06:51:30;6.78;;;1.73;;
69542;SDS011;56762;49.494;11.768;2023-04-03T06:53:58;4.85;;;1.73;;
69542;SDS011;56762;49.494;11.768;2023-04-03T06:56:27;5.05;;;1.90;;
69542;SDS011;56762;49.494;11.768;2023-04-03T06:58:57;4.43;;;1.63;;
69542;SDS011;56762;49.494;11.768;2023-04-03T07:01:25;3.42;;;1.55;;
69542;SDS011;56762;49.494;11.768;2023-04-03T07:03:54;5.57;;;1.58;;
69542;SDS011;56762;49.494;11.768;2023-04-03T07:06:22;4.00;;;1.73;;
69542;SDS011;56762;49.494;11.768;2023-04-03T07:08:53;4.78;;;1.95;;
69542;SDS011;56762;49.494;11.768;2023-04-03T07:11:22;3.43;;;1.37;;
69542;SDS011;56762;49.494;11.768;2023-04-03T07:13:50;3.15;;;1.10;;
69542;SDS011;56762;49.494;11.768;2023-04-03T07:16:19;3.78;;;1.20;;
69542;SDS011;56762;49.494;11.768;2023-04-03T07:18:48;3.17;;;1.20;;
69542;SDS011;56762;49.494;11.768;2023-04-03T07:21:16;5.10;;;1.50;;
69542;SDS011;56762;49.494;11.768;2023-04-03T07:23:44;3.93;;;1.70;;
69542;SDS011;56762;49.494;11.768;2023-04-03T07:26:12;3.97;;;1.33;;
69542;SDS011;56762;49.494;11.768;2023-04-03T07:28:40;3.75;;;1.48;;
69542;SDS011;56762;49.494;11.768;2023-04-03T07:31:10;5.05;;;1.15;;
69542;SDS011;56762;49.494;11.768;2023-04-03T07:33:41;3.03;;;1.40;;
69542;SDS011;56762;49.494;11.768;2023-04-03T07:36:10;3.33;;;1.30;;
69542;SDS011;56762;49.494;11.768;2023-04-03T07:38:43;4.75;;;1.25;;
69542;SDS011;56762;49.494;11.768;2023-04-03T07:41:11;4.68;;;1.33;;
69542;SDS011;56762;49.494;11.768;2023-04-03T07:43:44;3.97;;;1.42;;
69542;SDS011;56762;49.494;11.768;2023-04-03T07:46:13;3.10;;;1.02;;
69542;SDS011;56762;49.494;11.768;2023-04-03T07:48:42;4.93;;;1.60;;
69542;SDS011;56762;49.494;11.768;2023-04-03T07:51:11;5.22;;;1.58;;
69542;SDS011;56762;49.494;11.768;2023-04-03T07:53:40;5.82;;;1.80;;
69542;SDS011;56762;49.494;11.768;2023-04-03T07:56:08;5.28;;;1.65;;
69542;SDS011;56762;49.494;11.768;2023-04-03T07:58:35;5.10;;;1.90;;
69542;SDS011;56762;49.494;11.768;2023-04-03T08:01:03;3.27;;;1.60;;
69542;SDS011;56762;49.494;11.768;2023-04-03T08:03:32;3.20;;;1.25;;
69542;SDS011;56762;49.494;11.768;2023-04-03T08:06:02;6.00;;;2.40;;
69542;SDS011;56762;49.494;11.768;2023-04-03T08:08:37;3.75;;;1.20;;
69542;SDS011;56762;49.494;11.768;2023-04-03T08:11:04;3.28;;;1.35;;
69542;SDS011;56762;49.494;11.768;2023-04-03T08:13:34;3.60;;;1.50;;
69542;SDS011;56762;49.494;11.768;2023-04-03T08:16:09;4.13;;;1.30;;
69542;SDS011;56762;49.494;11.768;2023-04-03T08:18:38;2.33;;;1.20;;
69542;SDS011;56762;49.494;11.768;2023-04-03T08:21:08;5.15;;;2.00;;
69542;SDS011;56762;49.494;11.768;2023-04-03T08:23:37;3.80;;;1.70;;
69542;SDS011;56762;49.494;11.768;2023-04-03T08:26:06;4.57;;;1.20;;
69542;SDS011;56762;49.494;11.768;2023-04-03T08:28:36;2.85;;;0.80;;
69542;SDS011;56762;49.494;11.768;2023-04-03T08:31:05;2.67;;;0.90;;
69542;SDS011;56762;49.494;11.768;2023-04-03T08:33:37;5.22;;;0.90;;
69542;SDS011;56762;49.494;11.768;2023-04-03T08:36:14;4.20;;;1.17;;
69542;SDS011;56762;49.494;11.768;2023-04-03T08:38:45;4.03;;;0.60;;
69542;SDS011;56762;49.494;11.768;2023-04-03T08:41:14;1.38;;;0.60;;
69542;SDS011;56762;49.494;11.768;2023-04-03T08:43:48;3.58;;;0.80;;
69542;SDS011;56762;49.494;11.768;2023-04-03T08:46:26;3.90;;;1.58;;
69542;SDS011;56762;49.494;11.768;2023-04-03T08:49:01;1.60;;;0.60;;
69542;SDS011;56762;49.494;11.768;2023-04-03T08:51:31;2.07;;;0.50;;
69542;SDS011;56762;49.494;11.768;2023-04-03T08:54:00;3.85;;;1.05;;
69542;SDS011;56762;49.494;11.768;2023-04-03T08:56:32;3.17;;;0.95;;
69542;SDS011;56762;49.494;11.768;2023-04-03T08:59:01;2.92;;;0.70;;
69542;SDS011;56762;49.494;11.768;2023-04-03T09:01:34;2.05;;;0.65;;
69542;SDS011;56762;49.494;11.768;2023-04-03T09:04:05;1.77;;;0.63;;
69542;SDS011;56762;49.494;11.768;2023-04-03T09:06:40;2.38;;;0.63;;
69542;SDS011;56762;49.494;11.768;2023-04-03T09:09:13;3.20;;;1.08;;
69542;SDS011;56762;49.494;11.768;2023-04-03T09:11:50;3.35;;;0.90;;
69542;SDS011;56762;49.494;11.768;2023-04-03T09:14:33;3.15;;;0.50;;
69542;SDS011;56762;49.494;11.768;2023-04-03T09:17:09;2.40;;;0.63;;
69542;SDS011;56762;49.494;11.768;2023-04-03T09:19:45;2.88;;;0.73;;
69542;SDS011;56762;49.494;11.768;2023-04-03T09:22:23;1.73;;;0.43;;
69542;SDS011;56762;49.494;11.768;2023-04-03T09:24:55;2.65;;;0.60;;
69542;SDS011;56762;49.494;11.768;2023-04-03T09:27:27;2.45;;;0.60;;
69542;SDS011;56762;49.494;11.768;2023-04-03T09:29:55;1.83;;;0.53;;
69542;SDS011;56762;49.494;11.768;2023-04-03T09:32:26;1.40;;;0.45;;
69542;SDS011;56762;49.494;11.768;2023-04-03T09:34:57;3.20;;;0.70;;
69542;SDS011;56762;49.494;11.768;2023-04-03T09:37:47;1.73;;;0.57;;
69542;SDS011;56762;49.494;11.768;2023-04-03T09:40:29;2.30;;;0.60;;
69542;SDS011;56762;49.494;11.768;2023-04-03T09:43:02;1.60;;;0.50;;
69542;SDS011;56762;49.494;11.768;2023-04-03T09:45:46;2.35;;;0.45;;
69542;SDS011;56762;49.494;11.768;2023-04-03T09:48:17;2.10;;;0.60;;
69542;SDS011;56762;49.494;11.768;2023-04-03T09:50:54;2.85;;;0.60;;
69542;SDS011;56762;49.494;11.768;2023-04-03T09:53:34;3.97;;;0.77;;
69542;SDS011;56762;49.494;11.768;2023-04-03T09:56:04;2.90;;;0.70;;
69542;SDS011;56762;49.494;11.768;2023-04-03T09:58:46;3.13;;;0.75;;
69542;SDS011;56762;49.494;11.768;2023-04-03T10:01:23;4.70;;;1.20;;
69542;SDS011;56762;49.494;11.768;2023-04-03T10:04:03;12.05;;;2.38;;
69542;SDS011;56762;49.494;11.768;2023-04-03T10:06:36;19.58;;;4.43;;
69542;SDS011;56762;49.494;11.768;2023-04-03T10:09:14;4.17;;;0.80;;
69542;SDS011;56762;49.494;11.768;2023-04-03T10:11:57;6.50;;;1.27;;
69542;SDS011;56762;49.494;11.768;2023-04-03T10:14:27;3.70;;;0.90;;
69542;SDS011;56762;49.494;11.768;2023-04-03T10:16:57;7.93;;;1.95;;
69542;SDS011;56762;49.494;11.768;2023-04-03T10:19:32;4.13;;;1.30;;
69542;SDS011;56762;49.494;11.768;2023-04-03T10:22:04;2.27;;;0.73;;
69542;SDS011;56762;49.494;11.768;2023-04-03T10:24:47;3.38;;;0.60;;
69542;SDS011;56762;49.494;11.768;2023-04-03T10:27:27;2.08;;;0.50;;
69542;SDS011;56762;49.494;11.768;2023-04-03T10:30:04;1.83;;;0.30;;
69542;SDS011;56762;49.494;11.768;2023-04-03T10:32:50;3.03;;;0.80;;
69542;SDS011;56762;49.494;11.768;2023-04-03T10:35:31;2.17;;;0.30;;
69542;SDS011;56762;49.494;11.768;2023-04-03T10:38:14;2.83;;;0.30;;
69542;SDS011;56762;49.494;11.768;2023-04-03T10:40:51;2.85;;;0.63;;
69542;SDS011;56762;49.494;11.768;2023-04-03T10:43:25;2.75;;;0.43;;
69542;SDS011;56762;49.494;11.768;2023-04-03T10:46:02;3.08;;;0.47;;
69542;SDS011;56762;49.494;11.768;2023-04-03T10:48:35;1.97;;;0.30;;
69542;SDS011;56762;49.494;11.768;2023-04-03T10:51:16;2.25;;;0.40;;
69542;SDS011;56762;49.494;11.768;2023-04-03T10:53:52;2.15;;;0.57;;
69542;SDS011;56762;49.494;11.768;2023-04-03T10:56:29;2.90;;;0.50;;
69542;SDS011;56762;49.494;11.768;2023-04-03T10:59:02;2.10;;;0.30;;
69542;SDS011;56762;49.494;11.768;2023-04-03T11:01:43;1.47;;;0.20;;
69542;SDS011;56762;49.494;11.768;2023-04-03T11:04:13;1.65;;;0.30;;
69542;SDS011;56762;49.494;11.768;2023-04-03T11:06:46;3.22;;;0.45;;
69542;SDS011;56762;49.494;11.768;2023-04-03T11:09:19;1.15;;;0.30;;
69542;SDS011;56762;49.494;11.768;2023-04-03T11:11:53;1.77;;;0.25;;
69542;SDS011;56762;49.494;11.768;2023-04-03T11:14:26;1.70;;;0.40;;
69542;SDS011;56762;49.494;11.768;2023-04-03T11:16:59;1.38;;;0.20;;
69542;SDS011;56762;49.494;11.768;2023-04-03T11:19:34;2.10;;;0.28;;
69542;SDS011;56762;49.494;11.768;2023-04-03T11:22:08;2.58;;;0.40;;
69542;SDS011;56762;49.494;11.768;2023-04-03T11:24:41;1.77;;;0.25;;
69542;SDS011;56762;49.494;11.768;2023-04-03T11:27:17;3.60;;;0.33;;
69542;SDS011;56762;49.494;11.768;2023-04-03T11:29:49;1.10;;;0.32;;
69542;SDS011;56762;49.494;11.768;2023-04-03T11:32:40;1.48;;;0.40;;
69542;SDS011;56762;49.494;11.768;2023-04-03T11:35:27;1.40;;;0.20;;
69542;SDS011;56762;49.494;11.768;2023-04-03T11:37:56;3.42;;;0.50;;
69542;SDS011;56762;49.494;11.768;2023-04-03T11:40:28;1.43;;;0.20;;
69542;SDS011;56762;49.494;11.768;2023-04-03T11:43:04;2.88;;;0.30;;
69542;SDS011;56762;49.494;11.768;2023-04-03T11:45:35;2.13;;;0.30;;
69542;SDS011;56762;49.494;11.768;2023-04-03T11:48:06;1.10;;;0.20;;
69542;SDS011;56762;49.494;11.768;2023-04-03T11:57:22;2.08;;;0.50;;
69542;SDS011;56762;49.494;11.768;2023-04-03T12:03:29;1.63;;;0.30;;
69542;SDS011;56762;49.494;11.768;2023-04-03T12:09:27;5.10;;;2.20;;
69542;SDS011;56762;49.494;11.768;2023-04-03T12:12:30;4.85;;;1.42;;
69542;SDS011;56762;49.494;11.768;2023-04-03T12:21:10;1.83;;;0.30;;
69542;SDS011;56762;49.494;11.768;2023-04-03T12:26:28;5.68;;;1.40;;
69542;SDS011;56762;49.494;11.768;2023-04-03T12:29:14;3.08;;;0.40;;
69542;SDS011;56762;49.494;11.768;2023-04-03T12:31:46;1.48;;;0.30;;
69542;SDS011;56762;49.494;11.768;2023-04-03T12:34:30;1.45;;;0.13;;
69542;SDS011;56762;49.494;11.768;2023-04-03T12:37:19;3.07;;;0.50;;
69542;SDS011;56762;49.494;11.768;2023-04-03T12:40:00;2.45;;;0.38;;
69542;SDS011;56762;49.494;11.768;2023-04-03T12:42:42;1.98;;;0.40;;
69542;SDS011;56762;49.494;11.768;2023-04-03T12:45:29;1.23;;;0.10;;
69542;SDS011;56762;49.494;11.768;2023-04-03T12:48:12;1.25;;;0.28;;
69542;SDS011;56762;49.494;11.768;2023-04-03T12:50:44;2.73;;;0.30;;
69542;SDS011;56762;49.494;11.768;2023-04-03T12:53:14;1.02;;;0.20;;
69542;SDS011;56762;49.494;11.768;2023-04-03T12:55:45;1.70;;;0.20;;
69542;SDS011;56762;49.494;11.768;2023-04-03T12:58:14;2.28;;;0.30;;
69542;SDS011;56762;49.494;11.768;2023-04-03T13:00:58;1.95;;;0.28;;
69542;SDS011;56762;49.494;11.768;2023-04-03T13:03:28;1.50;;;0.43;;
69542;SDS011;56762;49.494;11.768;2023-04-03T13:05:59;1.52;;;0.20;;
69542;SDS011;56762;49.494;11.768;2023-04-03T13:08:28;2.47;;;0.30;;
69542;SDS011;56762;49.494;11.768;2023-04-03T13:10:58;2.20;;;0.30;;
69542;SDS011;56762;49.494;11.768;2023-04-03T13:13:31;1.40;;;0.32;;
69542;SDS011;56762;49.494;11.768;2023-04-03T13:15:59;1.40;;;0.27;;
69542;SDS011;56762;49.494;11.768;2023-04-03T13:18:36;1.65;;;0.32;;
69542;SDS011;56762;49.494;11.768;2023-04-03T13:21:06;1.40;;;0.32;;
69542;SDS011;56762;49.494;11.768;2023-04-03T13:23:39;0.57;;;0.20;;
69542;SDS011;56762;49.494;11.768;2023-04-03T13:26:09;1.88;;;0.38;;
69542;SDS011;56762;49.494;11.768;2023-04-03T13:28:38;1.70;;;0.33;;
69542;SDS011;56762;49.494;11.768;2023-04-03T13:31:08;1.30;;;0.30;;
69542;SDS011;56762;49.494;11.768;2023-04-03T13:33:51;3.78;;;0.30;;
69542;SDS011;56762;49.494;11.768;2023-04-03T13:36:24;2.45;;;0.70;;
69542;SDS011;56762;49.494;11.768;2023-04-03T13:38:58;1.08;;;0.20;;
69542;SDS011;56762;49.494;11.768;2023-04-03T13:41:29;1.67;;;0.20;;
69542;SDS011;56762;49.494;11.768;2023-04-03T13:46:45;1.40;;;0.28;;
69542;SDS011;56762;49.494;11.768;2023-04-03T13:49:19;2.35;;;0.30;;
69542;SDS011;56762;49.494;11.768;2023-04-03T13:51:50;2.22;;;0.22;;
69542;SDS011;56762;49.494;11.768;2023-04-03T13:54:33;3.27;;;0.40;;
69542;SDS011;56762;49.494;11.768;2023-04-03T13:57:10;2.97;;;0.32;;
69542;SDS011;56762;49.494;11.768;2023-04-03T13:59:40;1.70;;;0.30;;
69542;SDS011;56762;49.494;11.768;2023-04-03T14:02:15;1.55;;;0.30;;
69542;SDS011;56762;49.494;11.768;2023-04-03T14:04:45;3.22;;;0.35;;
69542;SDS011;56762;49.494;11.768;2023-04-03T14:07:17;1.63;;;0.30;;
69542;SDS011;56762;49.494;11.768;2023-04-03T14:09:46;2.05;;;0.40;;
69542;SDS011;56762;49.494;11.768;2023-04-03T14:12:15;2.80;;;0.50;;
69542;SDS011;56762;49.494;11.768;2023-04-03T14:14:56;2.10;;;0.30;;
69542;SDS011;56762;49.494;11.768;2023-04-03T14:17:25;2.10;;;0.28;;
69542;SDS011;56762;49.494;11.768;2023-04-03T14:19:54;0.97;;;0.17;;
69542;SDS011;56762;49.494;11.768;2023-04-03T14:22:25;2.55;;;0.30;;
69542;SDS011;56762;49.494;11.768;2023-04-03T14:24:56;1.33;;;0.57;;
69542;SDS011;56762;49.494;11.768;2023-04-03T14:27:25;1.27;;;0.20;;
69542;SDS011;56762;49.494;11.768;2023-04-03T14:29:55;2.70;;;0.57;;
69542;SDS011;56762;49.494;11.768;2023-04-03T14:32:24;2.63;;;0.40;;
69542;SDS011;56762;49.494;11.768;2023-04-03T14:34:54;1.92;;;0.50;;
69542;SDS011;56762;49.494;11.768;2023-04-03T14:37:22;2.20;;;0.50;;
69542;SDS011;56762;49.494;11.768;2023-04-03T14:39:54;2.03;;;0.30;;
69542;SDS011;56762;49.494;11.768;2023-04-03T14:42:24;1.67;;;0.40;;
69542;SDS011;56762;49.494;11.768;2023-04-03T14:44:54;3.40;;;1.00;;
69542;SDS011;56762;49.494;11.768;2023-04-03T14:47:23;2.13;;;0.60;;
69542;SDS011;56762;49.494;11.768;2023-04-03T14:49:57;2.08;;;0.50;;
69542;SDS011;56762;49.494;11.768;2023-04-03T14:52:27;1.52;;;0.30;;
69542;SDS011;56762;49.494;11.768;2023-04-03T14:54:58;1.35;;;0.47;;
69542;SDS011;56762;49.494;11.768;2023-04-03T14:57:27;4.33;;;1.10;;
69542;SDS011;56762;49.494;11.768;2023-04-03T14:59:56;5.20;;;1.27;;
69542;SDS011;56762;49.494;11.768;2023-04-03T15:02:28;3.42;;;1.67;;
69542;SDS011;56762;49.494;11.768;2023-04-03T15:04:58;3.97;;;0.70;;
69542;SDS011;56762;49.494;11.768;2023-04-03T15:07:29;6.22;;;2.30;;
69542;SDS011;56762;49.494;11.768;2023-04-03T15:10:01;5.53;;;1.47;;
69542;SDS011;56762;49.494;11.768;2023-04-03T15:12:33;2.38;;;0.77;;
69542;SDS011;56762;49.494;11.768;2023-04-03T15:15:01;3.10;;;0.88;;
69542;SDS011;56762;49.494;11.768;2023-04-03T15:17:29;4.18;;;1.30;;
69542;SDS011;56762;49.494;11.768;2023-04-03T15:19:58;4.68;;;1.45;;
69542;SDS011;56762;49.494;11.768;2023-04-03T15:22:27;2.50;;;0.70;;
69542;SDS011;56762;49.494;11.768;2023-04-03T15:24:55;3.28;;;1.10;;